Time;durP1;ratioP1;P1;durP2;ratioP2;P2;SDS_P1;SDS_P2;PMS_P1;PMS_P2;Temp;Humidity;BMP_temperature;BMP_pressure;BME280_temperature;BME280_humidity;BME280_pressure;Samples;Min_cycle;Max_cycle;Signal;HPM_P1;HPM_P2
2023/07/24 00:01:19;;;;;;;6.00;2.33;;;17.40;99.90;;;;;;6369169;22;20029;-86
2023/07/24 00:03:45;;;;;;;6.93;2.20;;;17.30;99.90;;;;;;6368988;22;20340;-87
2023/07/24 00:06:11;;;;;;;4.55;1.90;;;17.30;99.90;;;;;;6368920;22;20071;-86
2023/07/24 00:08:37;;;;;;;4.28;1.75;;;17.20;99.90;;;;;;6370745;22;20018;-85
2023/07/24 00:11:06;;;;;;;6.18;2.40;;;17.20;99.90;;;;;;6342862;22;20029;-85
2023/07/24 00:13:32;;;;;;;6.28;1.88;;;17.20;99.90;;;;;;6368920;22;20025;-85
2023/07/24 00:15:57;;;;;;;5.43;2.40;;;17.20;99.90;;;;;;6368042;22;20015;-86
2023/07/24 00:18:23;;;;;;;6.15;2.30;;;17.30;99.90;;;;;;6342401;22;20042;-86
2023/07/24 00:20:49;;;;;;;5.10;2.47;;;17.30;99.90;;;;;;6369150;22;20018;-85
2023/07/24 00:23:15;;;;;;;3.42;1.73;;;17.20;99.90;;;;;;6342242;22;20085;-86
2023/07/24 00:25:40;;;;;;;4.63;1.70;;;17.20;99.90;;;;;;6342482;22;20071;-85
2023/07/24 00:28:06;;;;;;;3.03;1.70;;;17.20;99.90;;;;;;6368456;22;20019;-85
2023/07/24 00:30:32;;;;;;;2.78;1.65;;;17.20;99.90;;;;;;6369987;22;20041;-85
2023/07/24 00:32:57;;;;;;;3.63;2.00;;;17.20;99.90;;;;;;6368382;22;20018;-86
2023/07/24 00:35:23;;;;;;;6.43;2.03;;;17.20;99.90;;;;;;6368838;22;20015;-86
2023/07/24 00:37:49;;;;;;;4.72;1.92;;;17.10;99.90;;;;;;6368332;22;20018;-85
2023/07/24 00:40:14;;;;;;;7.28;2.58;;;17.10;99.90;;;;;;6368468;22;20014;-86
2023/07/24 00:42:40;;;;;;;3.83;2.08;;;17.20;99.90;;;;;;6342242;22;20017;-86
2023/07/24 00:45:06;;;;;;;4.00;1.95;;;17.10;99.90;;;;;;6370233;22;20095;-85
2023/07/24 00:47:32;;;;;;;7.20;2.65;;;17.10;99.90;;;;;;6368113;22;20014;-85
2023/07/24 00:49:58;;;;;;;5.28;1.90;;;17.20;99.90;;;;;;6370037;22;20014;-85
2023/07/24 00:52:25;;;;;;;3.70;1.83;;;17.10;99.90;;;;;;6368778;22;20019;-85
2023/07/24 00:54:53;;;;;;;6.85;2.80;;;17.10;99.90;;;;;;6342805;22;20040;-85
2023/07/24 00:57:19;;;;;;;5.35;1.75;;;17.00;99.90;;;;;;6368721;22;20030;-84
2023/07/24 00:59:45;;;;;;;4.35;1.65;;;17.10;99.90;;;;;;6369287;22;20036;-85
2023/07/24 01:02:12;;;;;;;5.05;2.08;;;17.10;99.90;;;;;;6368015;22;20336;-86
2023/07/24 01:04:37;;;;;;;4.70;2.03;;;17.00;99.90;;;;;;6341994;22;20022;-85
2023/07/24 01:07:04;;;;;;;5.82;1.90;;;17.00;99.90;;;;;;6370009;22;20385;-85
2023/07/24 01:09:29;;;;;;;4.45;1.88;;;17.00;99.90;;;;;;6369951;22;20014;-85
2023/07/24 01:12:02;;;;;;;3.67;1.40;;;17.00;99.90;;;;;;6369570;22;20061;-85
2023/07/24 01:14:47;;;;;;;4.82;2.17;;;16.90;99.90;;;;;;6342164;22;20093;-84
2023/07/24 01:17:20;;;;;;;6.78;2.30;;;16.90;99.90;;;;;;6368151;22;20015;-85
2023/07/24 01:19:54;;;;;;;3.60;2.03;;;16.90;99.90;;;;;;6368612;22;20068;-85
2023/07/24 01:22:28;;;;;;;4.63;2.20;;;16.80;99.90;;;;;;6369947;22;20018;-85
2023/07/24 01:25:15;;;;;;;3.53;1.70;;;16.80;99.90;;;;;;6367910;22;20033;-84
2023/07/24 01:27:45;;;;;;;7.22;1.90;;;16.70;99.90;;;;;;6368423;22;20018;-85
2023/07/24 01:30:13;;;;;;;4.82;2.10;;;16.70;99.90;;;;;;6370118;22;20010;-85
2023/07/24 01:32:39;;;;;;;5.47;2.33;;;16.70;99.90;;;;;;6367827;22;20022;-85
2023/07/24 01:35:06;;;;;;;5.35;2.28;;;16.70;99.90;;;;;;6368411;22;20050;-86
2023/07/24 01:37:34;;;;;;;4.63;1.67;;;16.70;99.90;;;;;;6367680;22;20071;-85
2023/07/24 01:40:00;;;;;;;7.47;3.40;;;16.60;99.90;;;;;;6370332;22;20018;-85
2023/07/24 01:42:26;;;;;;;4.57;2.42;;;16.60;99.90;;;;;;6368292;22;20147;-84
2023/07/24 01:44:53;;;;;;;6.07;2.60;;;16.60;99.90;;;;;;6369980;22;20459;-84
2023/07/24 01:47:19;;;;;;;3.90;1.90;;;16.60;99.90;;;;;;6367831;22;20049;-85
2023/07/24 01:49:45;;;;;;;4.53;2.40;;;16.60;99.90;;;;;;6369370;22;20014;-85
2023/07/24 01:52:10;;;;;;;4.90;1.90;;;16.50;99.90;;;;;;6369500;22;20041;-85
2023/07/24 01:54:36;;;;;;;5.22;2.08;;;16.60;99.90;;;;;;6369583;22;20109;-85
2023/07/24 01:57:02;;;;;;;4.15;1.85;;;16.60;99.90;;;;;;6368090;22;20014;-84
2023/07/24 01:59:28;;;;;;;6.45;2.15;;;16.50;99.90;;;;;;6368194;22;20056;-84
2023/07/24 02:01:53;;;;;;;4.10;1.75;;;16.50;99.90;;;;;;6367718;22;20014;-86
2023/07/24 02:04:22;;;;;;;5.70;2.42;;;16.50;99.90;;;;;;6369238;22;20344;-86
2023/07/24 02:06:48;;;;;;;5.47;2.70;;;16.60;99.90;;;;;;6367918;22;20090;-85
2023/07/24 02:09:14;;;;;;;4.68;2.30;;;16.60;99.90;;;;;;6369857;22;20071;-85
2023/07/24 02:11:40;;;;;;;4.60;2.30;;;16.60;99.90;;;;;;6370742;22;20318;-85
2023/07/24 02:14:06;;;;;;;5.63;2.92;;;16.60;99.90;;;;;;6343375;22;20197;-85
2023/07/24 02:16:32;;;;;;;5.43;2.22;;;16.60;99.90;;;;;;6370269;22;20463;-86
2023/07/24 02:18:57;;;;;;;5.68;3.03;;;16.60;99.90;;;;;;6343814;22;20399;-85
2023/07/24 02:21:23;;;;;;;6.18;2.70;;;16.50;99.90;;;;;;6369771;22;20026;-85
2023/07/24 02:23:49;;;;;;;4.10;2.40;;;16.60;99.90;;;;;;6369403;22;20075;-84
2023/07/24 02:26:14;;;;;;;7.40;3.83;;;16.50;99.90;;;;;;6369816;22;20049;-85
2023/07/24 02:28:40;;;;;;;6.15;3.25;;;16.50;99.90;;;;;;6369826;22;20018;-85
2023/07/24 02:31:06;;;;;;;5.13;2.90;;;16.50;99.90;;;;;;6371430;22;20093;-84
2023/07/24 02:33:31;;;;;;;6.47;2.83;;;16.50;99.90;;;;;;6370339;22;20018;-86
2023/07/24 02:35:57;;;;;;;5.72;3.55;;;16.40;99.90;;;;;;6371162;22;20445;-85
2023/07/24 02:38:23;;;;;;;6.00;3.17;;;16.50;99.90;;;;;;6370036;22;20017;-85
2023/07/24 02:40:49;;;;;;;5.05;2.80;;;16.40;99.90;;;;;;6369719;22;20022;-87
2023/07/24 02:43:17;;;;;;;7.13;3.40;;;16.40;99.90;;;;;;6369739;22;20018;-85
2023/07/24 02:45:42;;;;;;;8.32;4.00;;;16.40;99.90;;;;;;6369920;22;20047;-85
2023/07/24 02:48:08;;;;;;;6.47;3.50;;;16.40;99.90;;;;;;6371209;22;20097;-85
2023/07/24 02:50:34;;;;;;;6.43;3.17;;;16.40;99.90;;;;;;6343804;22;20049;-85
2023/07/24 02:53:00;;;;;;;5.65;2.75;;;16.40;99.90;;;;;;6343345;22;20447;-85
2023/07/24 02:55:26;;;;;;;6.55;3.63;;;16.40;99.90;;;;;;6317182;22;20018;-84
2023/07/24 02:57:51;;;;;;;7.95;3.75;;;16.30;99.90;;;;;;6342839;22;20370;-85
2023/07/24 03:00:17;;;;;;;7.50;3.20;;;16.40;99.90;;;;;;6343077;22;20006;-85
2023/07/24 03:02:43;;;;;;;5.97;3.47;;;16.40;99.90;;;;;;6371349;22;20021;-85
2023/07/24 03:05:09;;;;;;;5.80;3.20;;;16.40;99.90;;;;;;6316888;22;20022;-86
2023/07/24 03:07:35;;;;;;;4.97;2.80;;;16.40;99.90;;;;;;6316537;22;20018;-85
2023/07/24 03:10:01;;;;;;;6.18;2.58;;;16.40;99.90;;;;;;6371265;22;20020;-85
2023/07/24 03:12:27;;;;;;;4.78;2.42;;;16.40;99.90;;;;;;6342969;22;20010;-85
2023/07/24 03:14:53;;;;;;;6.50;3.80;;;16.50;99.90;;;;;;6343257;22;20101;-85
2023/07/24 03:17:18;;;;;;;6.15;3.20;;;16.40;99.90;;;;;;6316786;22;20018;-85
2023/07/24 03:19:44;;;;;;;7.38;3.97;;;16.40;99.90;;;;;;6370959;22;20021;-85
2023/07/24 03:22:10;;;;;;;8.95;4.75;;;16.50;99.90;;;;;;6370902;22;20018;-85
2023/07/24 03:24:35;;;;;;;5.53;3.13;;;16.50;99.90;;;;;;6371149;22;20421;-88
2023/07/24 03:27:02;;;;;;;6.70;3.72;;;16.50;99.90;;;;;;6317490;22;20394;-88
2023/07/24 03:29:27;;;;;;;6.10;3.92;;;16.50;99.90;;;;;;6343624;22;20020;-88
2023/07/24 03:31:53;;;;;;;6.10;3.13;;;16.60;99.90;;;;;;6371467;22;20085;-86
2023/07/24 03:34:19;;;;;;;6.20;3.00;;;16.50;99.90;;;;;;6342783;22;20030;-86
2023/07/24 03:36:45;;;;;;;5.38;2.47;;;16.60;99.90;;;;;;6342473;22;20113;-85
2023/07/24 03:39:11;;;;;;;5.50;2.72;;;16.60;99.90;;;;;;6342508;22;20417;-86
2023/07/24 03:41:38;;;;;;;7.55;3.42;;;16.60;99.90;;;;;;6342288;22;20026;-85
2023/07/24 03:44:04;;;;;;;6.70;3.55;;;16.70;99.90;;;;;;6343017;22;20089;-85
2023/07/24 03:46:30;;;;;;;6.25;3.83;;;16.70;99.90;;;;;;6370822;22;20422;-86
2023/07/24 03:48:55;;;;;;;5.28;3.00;;;16.70;99.90;;;;;;6316320;22;20326;-85
2023/07/24 03:51:21;;;;;;;6.13;3.25;;;16.70;99.90;;;;;;6342633;22;20029;-85
2023/07/24 03:53:47;;;;;;;7.07;3.33;;;16.70;99.90;;;;;;6342591;22;20018;-85
2023/07/24 03:56:12;;;;;;;6.82;3.97;;;16.70;99.90;;;;;;6342645;22;20018;-85
2023/07/24 03:58:41;;;;;;;6.43;3.53;;;16.70;99.90;;;;;;6370666;22;20021;-86
2023/07/24 04:01:08;;;;;;;8.13;3.83;;;16.70;99.90;;;;;;6316359;22;20082;-85
2023/07/24 04:03:34;;;;;;;3.03;2.10;;;16.70;99.90;;;;;;6342438;22;20018;-86
2023/07/24 04:06:00;;;;;;;5.53;3.33;;;16.80;99.90;;;;;;6342406;22;20085;-86
2023/07/24 04:08:25;;;;;;;5.65;2.20;;;16.80;99.90;;;;;;6342507;22;20438;-86
2023/07/24 04:10:52;;;;;;;3.00;1.67;;;16.80;99.90;;;;;;6369810;22;20025;-86
2023/07/24 04:13:17;;;;;;;5.35;2.20;;;16.80;99.90;;;;;;6342582;22;20045;-86
2023/07/24 04:15:44;;;;;;;6.32;2.35;;;16.80;99.90;;;;;;6370299;22;20333;-85
2023/07/24 04:18:10;;;;;;;4.53;2.05;;;16.90;99.90;;;;;;6316889;22;20021;-86
2023/07/24 04:20:36;;;;;;;6.55;2.80;;;16.80;99.90;;;;;;6317383;22;20015;-85
2023/07/24 04:23:02;;;;;;;7.45;2.95;;;16.90;99.90;;;;;;6370608;22;20031;-86
2023/07/24 04:25:28;;;;;;;5.40;2.03;;;16.90;99.90;;;;;;6342422;22;20014;-86
2023/07/24 04:27:53;;;;;;;4.40;2.28;;;16.90;99.90;;;;;;6342560;22;20093;-86
2023/07/24 04:30:19;;;;;;;4.65;2.25;;;16.90;99.90;;;;;;6369942;22;20068;-85
2023/07/24 04:32:46;;;;;;;3.08;2.03;;;17.00;99.90;;;;;;6342182;22;20018;-86
2023/07/24 04:35:12;;;;;;;7.35;3.70;;;17.00;99.90;;;;;;6370129;22;20010;-86
2023/07/24 04:37:37;;;;;;;7.50;3.55;;;17.00;99.90;;;;;;6342070;22;20154;-86
2023/07/24 04:40:05;;;;;;;6.25;3.35;;;17.00;99.90;;;;;;6342219;22;20021;-86
2023/07/24 04:42:31;;;;;;;4.88;2.28;;;17.00;99.90;;;;;;6369990;22;20014;-85
2023/07/24 04:44:56;;;;;;;3.75;2.22;;;17.00;99.90;;;;;;6370351;22;20006;-86
2023/07/24 04:47:22;;;;;;;5.45;2.75;;;17.00;99.90;;;;;;6353391;22;20022;-87
2023/07/24 04:49:48;;;;;;;6.47;3.05;;;17.10;99.90;;;;;;6368209;22;20071;-85
2023/07/24 04:52:14;;;;;;;4.88;3.25;;;17.10;99.90;;;;;;6369868;22;20015;-86
2023/07/24 04:54:39;;;;;;;4.72;2.50;;;17.00;99.90;;;;;;6370092;22;20378;-86
2023/07/24 04:57:05;;;;;;;4.28;2.08;;;17.00;99.90;;;;;;6370172;22;20371;-86
2023/07/24 04:59:31;;;;;;;4.13;2.33;;;17.00;99.90;;;;;;6368291;22;20452;-86
2023/07/24 05:01:56;;;;;;;7.47;3.28;;;17.00;99.90;;;;;;6368297;22;20392;-86
2023/07/24 05:04:22;;;;;;;5.45;2.88;;;17.10;99.90;;;;;;6367777;22;20064;-87
2023/07/24 05:06:48;;;;;;;5.80;2.90;;;17.10;99.90;;;;;;6368256;22;20093;-86
2023/07/24 05:09:14;;;;;;;5.70;2.88;;;17.10;99.90;;;;;;6369954;22;20018;-85
2023/07/24 05:11:41;;;;;;;6.85;3.53;;;17.10;99.90;;;;;;6342517;22;20328;-86
2023/07/24 05:14:07;;;;;;;5.95;3.10;;;17.10;99.90;;;;;;6367873;22;20022;-86
2023/07/24 05:16:33;;;;;;;8.15;5.22;;;17.10;99.90;;;;;;6367872;22;20017;-87
2023/07/24 05:18:59;;;;;;;6.07;3.28;;;17.10;99.90;;;;;;6368693;22;20024;-86
2023/07/24 05:21:24;;;;;;;5.97;2.97;;;17.10;99.90;;;;;;6367900;22;20030;-85
2023/07/24 05:23:50;;;;;;;6.65;4.25;;;17.10;99.90;;;;;;6367955;22;20147;-85
2023/07/24 05:26:16;;;;;;;6.13;3.40;;;17.20;99.90;;;;;;6369987;22;20319;-87
2023/07/24 05:28:42;;;;;;;3.78;2.47;;;17.20;99.90;;;;;;6367996;22;20021;-86
2023/07/24 05:31:08;;;;;;;4.55;2.83;;;17.20;99.90;;;;;;6369931;22;20017;-84
2023/07/24 05:33:33;;;;;;;3.83;2.25;;;17.20;99.90;;;;;;6369911;22;20387;-85
2023/07/24 05:36:03;;;;;;;6.75;3.20;;;17.20;99.90;;;;;;6368960;22;20049;-85
2023/07/24 05:38:33;;;;;;;5.47;2.50;;;17.30;99.90;;;;;;6368238;22;20060;-85
2023/07/24 05:41:01;;;;;;;5.47;2.60;;;17.30;99.90;;;;;;6368543;22;20022;-84
2023/07/24 05:43:27;;;;;;;5.10;3.13;;;17.40;99.90;;;;;;6369669;22;20014;-87
2023/07/24 05:45:54;;;;;;;4.03;2.53;;;17.40;99.90;;;;;;6367858;22;20021;-84
2023/07/24 05:48:20;;;;;;;4.25;2.58;;;17.40;99.90;;;;;;6367374;22;20018;-86
2023/07/24 05:50:47;;;;;;;5.05;3.42;;;17.40;99.90;;;;;;6369859;22;20019;-87
2023/07/24 05:53:13;;;;;;;5.40;2.83;;;17.40;99.90;;;;;;6368626;22;20041;-83
2023/07/24 05:55:42;;;;;;;6.15;3.20;;;17.40;99.90;;;;;;6369855;22;20014;-88
2023/07/24 05:58:19;;;;;;;4.63;3.00;;;17.50;99.90;;;;;;6343857;22;20025;-87
2023/07/24 06:00:45;;;;;;;6.15;3.38;;;17.50;99.90;;;;;;6369600;22;20019;-84
2023/07/24 06:03:10;;;;;;;7.20;4.25;;;17.40;99.90;;;;;;6367874;22;20045;-86
2023/07/24 06:05:36;;;;;;;7.22;3.30;;;17.50;99.90;;;;;;6367733;22;20014;-85
2023/07/24 06:08:02;;;;;;;4.88;2.92;;;17.40;99.90;;;;;;6369392;22;20106;-83
2023/07/24 06:10:27;;;;;;;5.45;3.25;;;17.40;99.90;;;;;;6367681;22;20006;-84
2023/07/24 06:12:53;;;;;;;6.07;3.58;;;17.40;99.90;;;;;;6369839;22;20040;-84
2023/07/24 06:15:19;;;;;;;6.00;3.65;;;17.40;99.90;;;;;;6368146;22;20341;-83
2023/07/24 06:17:44;;;;;;;6.00;2.67;;;17.40;99.90;;;;;;6368030;22;20026;-84
2023/07/24 06:20:10;;;;;;;5.40;2.22;;;17.40;99.90;;;;;;6367637;22;20014;-84
2023/07/24 06:22:36;;;;;;;4.38;2.80;;;17.40;99.90;;;;;;6369511;22;20087;-84
2023/07/24 06:25:02;;;;;;;6.20;3.90;;;17.40;99.90;;;;;;6369454;22;20011;-83
2023/07/24 06:27:27;;;;;;;5.05;2.95;;;17.50;99.90;;;;;;6369311;22;20010;-84
2023/07/24 06:29:53;;;;;;;5.95;3.78;;;17.60;99.90;;;;;;6367576;22;20097;-86
2023/07/24 06:32:19;;;;;;;5.35;3.22;;;17.50;99.90;;;;;;6367590;22;20349;-84
2023/07/24 06:34:44;;;;;;;5.53;3.22;;;17.60;99.90;;;;;;6368142;22;20010;-87
2023/07/24 06:37:10;;;;;;;7.57;3.60;;;17.70;99.90;;;;;;6367803;22;20018;-84
2023/07/24 06:39:36;;;;;;;4.25;2.80;;;17.70;99.90;;;;;;6367894;22;20105;-85
2023/07/24 06:42:01;;;;;;;6.85;3.40;;;17.80;99.90;;;;;;6367400;22;20022;-85
2023/07/24 06:44:27;;;;;;;7.45;3.95;;;17.90;99.90;;;;;;6367854;22;20098;-86
2023/07/24 06:46:53;;;;;;;6.07;3.55;;;18.00;99.90;;;;;;6369424;22;20018;-87
2023/07/24 06:49:19;;;;;;;3.92;2.63;;;18.20;99.90;;;;;;6341637;22;20023;-88
2023/07/24 06:51:44;;;;;;;6.05;3.38;;;18.30;99.90;;;;;;6341016;22;20337;-87
2023/07/24 06:54:10;;;;;;;8.63;3.35;;;18.30;99.90;;;;;;6341611;22;20015;-87
2023/07/24 06:56:36;;;;;;;5.50;3.08;;;18.50;99.90;;;;;;6369846;22;20033;-84
2023/07/24 06:59:02;;;;;;;7.55;4.05;;;18.60;99.90;;;;;;6316425;22;20015;-86
2023/07/24 07:01:28;;;;;;;9.30;3.78;;;18.60;99.90;;;;;;6317283;22;20046;-86
2023/07/24 07:03:53;;;;;;;8.13;3.97;;;18.70;99.90;;;;;;6372883;22;20337;-86
2023/07/24 07:06:19;;;;;;;5.90;2.78;;;18.70;99.90;;;;;;6370599;22;20067;-85
2023/07/24 07:08:45;;;;;;;5.72;2.47;;;18.80;99.90;;;;;;6316855;22;20014;-86
2023/07/24 07:11:10;;;;;;;5.55;3.35;;;18.80;99.90;;;;;;6342726;22;20028;-85
2023/07/24 07:13:36;;;;;;;7.82;2.58;;;18.90;99.90;;;;;;6342783;22;20094;-85
2023/07/24 07:16:02;;;;;;;6.32;2.53;;;19.00;99.90;;;;;;6371193;22;20014;-86
2023/07/24 07:18:28;;;;;;;7.55;3.47;;;19.00;99.90;;;;;;6371375;22;20010;-84
2023/07/24 07:20:54;;;;;;;9.02;3.47;;;19.10;99.90;;;;;;6342775;22;20076;-83
2023/07/24 07:23:20;;;;;;;4.97;2.90;;;19.20;99.90;;;;;;6342731;22;20079;-82
2023/07/24 07:25:46;;;;;;;4.18;2.70;;;19.30;99.90;;;;;;6316411;22;20375;-82
2023/07/24 07:28:13;;;;;;;5.15;3.15;;;19.30;99.90;;;;;;6371192;22;20018;-83
2023/07/24 07:30:39;;;;;;;6.05;2.70;;;19.30;99.90;;;;;;6371130;22;20097;-83
2023/07/24 07:33:08;;;;;;;5.70;2.30;;;19.30;99.90;;;;;;6370933;22;20021;-82
2023/07/24 07:35:34;;;;;;;5.97;2.70;;;19.40;99.90;;;;;;6343099;22;20029;-83
2023/07/24 07:38:01;;;;;;;5.38;2.55;;;19.40;99.90;;;;;;6342731;22;20018;-83
2023/07/24 07:40:29;;;;;;;6.32;3.25;;;19.40;99.90;;;;;;6343363;22;20011;-83
2023/07/24 07:42:56;;;;;;;5.35;3.03;;;19.40;99.90;;;;;;6370892;22;20014;-83
2023/07/24 07:45:22;;;;;;;5.38;2.72;;;19.50;99.90;;;;;;6370891;22;20018;-83
2023/07/24 07:47:48;;;;;;;6.18;3.38;;;19.50;99.90;;;;;;6370521;22;20058;-82
2023/07/24 07:50:14;;;;;;;6.75;3.75;;;19.60;99.90;;;;;;6370599;22;20026;-82
2023/07/24 07:52:40;;;;;;;7.28;3.45;;;19.70;99.90;;;;;;6342326;22;20010;-82
2023/07/24 07:55:06;;;;;;;6.55;3.35;;;19.70;99.90;;;;;;6370752;22;20098;-83
2023/07/24 07:57:38;;;;;;;5.57;2.75;;;19.80;99.90;;;;;;6370884;22;20115;-82
2023/07/24 08:00:08;;;;;;;4.45;3.08;;;19.90;99.90;;;;;;6371160;22;20011;-83
2023/07/24 08:02:34;;;;;;;10.93;3.83;;;19.90;99.90;;;;;;6342402;22;20060;-83
2023/07/24 08:05:00;;;;;;;4.80;2.33;;;19.90;99.90;;;;;;6343180;22;20014;-82
2023/07/24 08:07:26;;;;;;;5.90;3.17;;;20.00;99.90;;;;;;6370110;22;20021;-83
2023/07/24 08:09:52;;;;;;;5.70;2.75;;;20.00;99.90;;;;;;6342660;22;20010;-82
2023/07/24 08:12:17;;;;;;;3.85;2.20;;;20.20;99.90;;;;;;6370328;22;20046;-83
2023/07/24 08:14:43;;;;;;;3.22;1.80;;;20.20;99.90;;;;;;6370775;22;20029;-82
2023/07/24 08:17:09;;;;;;;9.18;3.35;;;20.30;99.90;;;;;;6370537;22;20015;-82
2023/07/24 08:19:35;;;;;;;7.22;3.08;;;20.40;99.90;;;;;;6342924;22;20014;-83
2023/07/24 08:22:00;;;;;;;5.35;2.55;;;20.50;99.90;;;;;;6342530;22;20014;-82
2023/07/24 08:24:26;;;;;;;3.75;1.90;;;20.60;99.90;;;;;;6370140;22;20513;-83
2023/07/24 08:26:51;;;;;;;4.70;2.08;;;20.60;99.90;;;;;;6342283;22;20102;-82
2023/07/24 08:29:17;;;;;;;7.00;2.28;;;20.60;99.90;;;;;;6342279;22;20025;-82
2023/07/24 08:31:43;;;;;;;5.38;2.20;;;20.60;99.90;;;;;;6369959;22;20097;-82
2023/07/24 08:34:08;;;;;;;4.72;1.98;;;20.60;99.90;;;;;;6342258;22;20448;-83
2023/07/24 08:36:34;;;;;;;6.38;2.08;;;20.60;99.90;;;;;;6369824;22;20014;-83
2023/07/24 08:39:00;;;;;;;5.35;2.30;;;20.40;99.90;;;;;;6316249;22;20135;-82
2023/07/24 08:41:25;;;;;;;5.80;2.60;;;20.50;99.90;;;;;;6370137;22;20021;-83
2023/07/24 08:43:52;;;;;;;5.78;2.00;;;20.50;99.90;;;;;;6369827;22;20359;-83
2023/07/24 08:46:19;;;;;;;4.53;2.50;;;20.60;99.90;;;;;;6370278;22;20021;-82
2023/07/24 08:48:44;;;;;;;6.47;3.00;;;20.60;99.90;;;;;;6285632;22;20022;-82
2023/07/24 08:51:16;;;;;;;6.40;2.15;;;20.70;99.90;;;;;;6338919;22;20038;-82
2023/07/24 08:53:43;;;;;;;3.05;1.65;;;20.80;99.90;;;;;;6338720;22;20015;-82
2023/07/24 08:56:10;;;;;;;4.20;2.20;;;20.90;99.90;;;;;;6338415;22;20349;-82
2023/07/24 08:58:36;;;;;;;5.88;2.20;;;21.00;99.90;;;;;;6310449;22;20014;-83
2023/07/24 09:01:03;;;;;;;4.90;1.52;;;21.10;99.90;;;;;;6311233;22;20080;-83
2023/07/24 09:03:30;;;;;;;4.15;2.28;;;21.20;99.90;;;;;;6310550;22;20465;-83
2023/07/24 09:05:57;;;;;;;7.70;2.17;;;21.30;99.90;;;;;;6338543;22;20072;-83
2023/07/24 09:08:38;;;;;;;6.43;2.00;;;21.40;99.90;;;;;;6338315;22;20014;-84
2023/07/24 09:11:06;;;;;;;4.82;2.33;;;21.50;99.90;;;;;;6310623;22;20450;-82
2023/07/24 09:13:33;;;;;;;5.80;2.65;;;21.60;99.90;;;;;;6338599;22;20097;-83
2023/07/24 09:15:59;;;;;;;5.03;1.83;;;21.70;99.90;;;;;;6338349;22;20453;-82
2023/07/24 09:18:25;;;;;;;6.40;2.28;;;21.60;99.90;;;;;;6310920;22;20099;-82
2023/07/24 09:20:51;;;;;;;3.75;1.60;;;21.60;99.90;;;;;;6310130;22;20085;-82
2023/07/24 09:23:26;;;;;;;4.25;2.00;;;21.60;99.90;;;;;;6310404;22;20403;-82
2023/07/24 09:25:52;;;;;;;5.65;2.50;;;21.60;99.90;;;;;;6338230;22;20030;-83
2023/07/24 09:28:20;;;;;;;5.15;2.22;;;21.60;99.90;;;;;;6338514;22;20015;-82
2023/07/24 09:30:57;;;;;;;5.07;2.25;;;21.50;99.90;;;;;;6338481;22;20018;-83
2023/07/24 09:33:33;;;;;;;6.65;2.72;;;21.60;99.90;;;;;;6338640;22;20046;-82
2023/07/24 09:36:00;;;;;;;6.75;3.13;;;21.60;99.90;;;;;;6338284;22;20021;-83
2023/07/24 09:38:26;;;;;;;5.60;2.00;;;21.60;99.90;;;;;;6338065;22;20483;-83
2023/07/24 09:40:53;;;;;;;5.63;2.17;;;22.00;99.90;;;;;;6309768;22;20097;-88
2023/07/24 09:43:27;;;;;;;4.35;1.80;;;22.20;99.90;;;;;;6310311;22;20029;-85
2023/07/24 09:45:56;;;;;;;5.00;1.88;;;22.50;99.90;;;;;;6338136;22;20015;-85
2023/07/24 09:48:24;;;;;;;4.82;2.00;;;22.80;99.90;;;;;;6364351;22;20340;-85
2023/07/24 09:50:55;;;;;;;4.47;2.22;;;22.80;99.90;;;;;;6341578;22;20022;-84
2023/07/24 09:53:30;;;;;;;5.50;1.75;;;22.80;99.90;;;;;;6341601;22;20015;-86
2023/07/24 09:56:01;;;;;;;4.38;1.77;;;22.80;99.90;;;;;;6341689;22;20448;-85
2023/07/24 09:58:28;;;;;;;3.28;1.67;;;22.80;99.90;;;;;;6341590;22;20014;-85
2023/07/24 10:00:54;;;;;;;4.30;1.50;;;22.80;99.90;;;;;;6341353;22;20026;-84
2023/07/24 10:03:21;;;;;;;5.25;1.88;;;22.70;99.90;;;;;;6315281;22;20018;-85
2023/07/24 10:05:48;;;;;;;3.53;1.83;;;22.60;99.90;;;;;;6369182;22;20018;-86
2023/07/24 10:08:18;;;;;;;6.22;2.50;;;22.70;99.90;;;;;;6341327;22;20011;-85
2023/07/24 10:10:45;;;;;;;3.45;1.83;;;22.90;99.90;;;;;;6315638;22;20014;-87
2023/07/24 10:13:14;;;;;;;5.70;2.38;;;23.10;99.90;;;;;;6341071;22;20011;-86
2023/07/24 10:15:42;;;;;;;4.47;1.80;;;23.30;99.90;;;;;;6315310;22;20025;-85
2023/07/24 10:18:09;;;;;;;6.20;1.88;;;23.50;99.90;;;;;;6340619;22;20439;-82
2023/07/24 10:20:39;;;;;;;5.10;2.05;;;23.70;99.90;;;;;;6369343;22;20010;-82
2023/07/24 10:23:07;;;;;;;3.97;2.10;;;23.90;99.90;;;;;;6368654;22;20447;-83
2023/07/24 10:25:34;;;;;;;2.45;1.42;;;24.00;99.90;;;;;;6369185;22;20018;-83
2023/07/24 10:28:10;;;;;;;6.50;2.13;;;24.30;99.90;;;;;;6369654;22;20089;-82
2023/07/24 10:30:40;;;;;;;3.88;1.90;;;24.50;99.90;;;;;;6341627;22;20043;-84
2023/07/24 10:33:17;;;;;;;2.05;1.20;;;24.80;99.90;;;;;;6343639;22;20059;-83
2023/07/24 10:35:47;;;;;;;4.35;1.33;;;24.70;99.90;;;;;;6371541;22;20342;-82
2023/07/24 10:38:15;;;;;;;2.63;1.00;;;24.40;99.90;;;;;;6342947;22;20014;-82
2023/07/24 10:40:43;;;;;;;2.92;1.00;;;24.10;99.90;;;;;;6372079;22;20014;-84
2023/07/24 10:43:11;;;;;;;4.97;1.30;;;23.80;99.90;;;;;;6343544;22;20026;-83
2023/07/24 10:45:50;;;;;;;3.95;1.38;;;23.50;99.90;;;;;;6371419;22;20033;-84
2023/07/24 10:48:20;;;;;;;4.22;1.70;;;23.10;99.90;;;;;;6371094;22;20014;-85
2023/07/24 10:50:47;;;;;;;2.85;1.58;;;22.70;99.90;;;;;;6344598;22;20333;-86
2023/07/24 10:53:21;;;;;;;3.83;1.15;;;22.50;99.90;;;;;;6371240;22;20049;-85
2023/07/24 10:55:47;;;;;;;2.95;1.05;;;22.40;99.90;;;;;;6371343;22;20049;-83
2023/07/24 10:58:14;;;;;;;3.63;1.08;;;22.30;99.90;;;;;;6342730;22;20028;-85
2023/07/24 11:00:43;;;;;;;2.08;1.00;;;22.20;99.90;;;;;;6371915;22;20072;-85
2023/07/24 11:03:13;;;;;;;1.42;0.88;;;22.20;99.90;;;;;;6343231;22;20360;-85
2023/07/24 11:05:44;;;;;;;2.75;1.00;;;22.30;99.90;;;;;;6371229;22;20330;-85
2023/07/24 11:08:16;;;;;;;1.25;0.90;;;22.20;99.90;;;;;;6343625;22;20367;-85
2023/07/24 11:10:51;;;;;;;2.75;1.38;;;22.20;99.90;;;;;;6343253;22;20011;-85
2023/07/24 11:13:20;;;;;;;3.20;1.20;;;22.10;99.90;;;;;;6370944;22;20517;-85
2023/07/24 11:15:47;;;;;;;3.00;1.50;;;22.10;99.90;;;;;;6343123;22;20333;-85
2023/07/24 11:18:14;;;;;;;2.65;1.30;;;22.10;99.90;;;;;;6343129;22;20018;-85
2023/07/24 11:20:48;;;;;;;5.13;2.60;;;22.10;99.90;;;;;;6343143;22;20072;-85
2023/07/24 11:23:14;;;;;;;3.17;1.27;;;22.20;99.90;;;;;;6343405;22;20042;-85
2023/07/24 11:25:41;;;;;;;3.15;1.30;;;21.90;99.90;;;;;;6371358;22;20067;-85
2023/07/24 11:28:09;;;;;;;4.35;1.80;;;21.80;99.90;;;;;;6371077;22;20025;-85
2023/07/24 11:30:35;;;;;;;4.70;1.58;;;22.00;99.90;;;;;;6371390;22;20010;-85
2023/07/24 11:33:04;;;;;;;5.05;1.50;;;21.90;99.90;;;;;;6343147;22;20458;-85
2023/07/24 11:35:30;;;;;;;2.50;1.30;;;21.80;99.90;;;;;;6371175;22;20366;-85
2023/07/24 11:37:56;;;;;;;2.60;1.40;;;21.70;99.90;;;;;;6371258;22;20103;-85
2023/07/24 11:40:40;;;;;;;2.03;1.25;;;21.70;99.90;;;;;;6343312;22;20313;-85
2023/07/24 11:43:16;;;;;;;1.88;1.38;;;21.80;99.90;;;;;;6370863;22;20014;-85
2023/07/24 11:45:43;;;;;;;4.05;1.33;;;21.80;99.90;;;;;;6370738;22;20006;-85
2023/07/24 11:48:12;;;;;;;3.22;1.50;;;22.00;99.90;;;;;;6361487;22;20325;-85
2023/07/24 11:50:43;;;;;;;3.53;1.67;;;22.00;99.90;;;;;;6370930;22;20522;-85
2023/07/24 11:53:28;;;;;;;4.93;1.95;;;22.10;99.90;;;;;;6368960;22;20101;-85
2023/07/24 11:55:57;;;;;;;1.60;1.20;;;22.20;99.90;;;;;;6370603;22;20018;-85
2023/07/24 11:58:25;;;;;;;2.10;1.20;;;22.40;99.90;;;;;;6370904;22;20018;-84
2023/07/24 12:00:54;;;;;;;3.47;1.40;;;22.70;99.90;;;;;;6369212;22;20026;-85
2023/07/24 12:03:28;;;;;;;3.10;1.60;;;22.90;99.90;;;;;;6368551;22;20017;-84
2023/07/24 12:05:53;;;;;;;2.30;1.15;;;23.10;99.90;;;;;;6370368;22;20083;-85
2023/07/24 12:08:31;;;;;;;5.63;1.50;;;23.30;99.90;;;;;;6370686;22;20010;-85
2023/07/24 12:10:57;;;;;;;5.20;1.48;;;23.50;99.90;;;;;;6369328;22;20025;-85
2023/07/24 12:13:23;;;;;;;6.15;1.38;;;23.40;99.90;;;;;;6370875;22;20014;-84
2023/07/24 12:15:49;;;;;;;3.92;1.55;;;23.20;99.90;;;;;;6370631;22;20014;-85
2023/07/24 12:18:15;;;;;;;4.40;2.10;;;23.10;99.90;;;;;;6370845;22;20006;-85
2023/07/24 12:20:43;;;;;;;3.25;1.90;;;23.00;99.90;;;;;;6370914;22;20014;-85
2023/07/24 12:23:08;;;;;;;3.47;2.05;;;22.70;99.90;;;;;;6370582;22;20021;-84
2023/07/24 12:25:34;;;;;;;4.53;1.65;;;22.40;99.90;;;;;;6368781;22;20022;-84
2023/07/24 12:28:00;;;;;;;2.45;1.38;;;22.20;99.90;;;;;;6369364;22;20018;-84
2023/07/24 12:30:26;;;;;;;2.67;1.73;;;21.80;99.90;;;;;;6370743;22;20321;-86
2023/07/24 12:32:51;;;;;;;5.65;1.65;;;21.60;99.90;;;;;;6370273;22;20259;-85
2023/07/24 12:35:17;;;;;;;3.00;1.50;;;21.40;99.90;;;;;;6370304;22;20025;-85
2023/07/24 12:37:45;;;;;;;4.68;1.70;;;21.30;99.90;;;;;;6368490;22;20425;-85
2023/07/24 12:40:11;;;;;;;2.38;1.48;;;21.10;99.90;;;;;;6369107;22;20018;-84
2023/07/24 12:42:37;;;;;;;2.83;1.80;;;20.90;99.90;;;;;;6369934;22;20459;-86
2023/07/24 12:45:03;;;;;;;4.93;2.20;;;20.80;99.90;;;;;;6368583;22;20014;-86
2023/07/24 12:47:29;;;;;;;2.63;1.70;;;20.70;99.90;;;;;;6342251;22;20019;-86